createdAt,value
2023-01-26T00:00:00.148Z,7.60
2023-01-26T00:06:09.660Z,8.60
2023-01-26T00:12:11.463Z,8.13
2023-01-26T00:18:14.895Z,9.80
2023-01-26T00:24:16.844Z,9.65
2023-01-26T00:30:18.830Z,9.90
2023-01-26T00:36:21.187Z,11.23
2023-01-26T00:42:30.361Z,12.40
2023-01-26T00:48:32.156Z,18.65
2023-01-26T00:54:35.310Z,17.90
2023-01-26T01:00:38.515Z,18.25
2023-01-26T01:06:40.379Z,19.33
2023-01-26T01:12:42.192Z,17.58
2023-01-26T01:18:45.014Z,20.30
2023-01-26T01:24:46.938Z,18.75
2023-01-26T01:30:48.990Z,19.23
2023-01-26T01:36:50.792Z,18.05
2023-01-26T01:42:52.620Z,18.40
2023-01-26T01:49:19.945Z,19.90
2023-01-26T01:55:22.516Z,18.98
2023-01-26T02:01:24.873Z,19.00
2023-01-26T02:07:28.837Z,19.15
2023-01-26T02:13:50.008Z,19.27
2023-01-26T02:19:55.078Z,20.77
2023-01-26T02:26:35.712Z,19.92
2023-01-26T02:32:37.943Z,17.70
2023-01-26T02:38:42.313Z,20.95
2023-01-26T02:44:44.777Z,20.45
2023-01-26T02:50:46.957Z,18.48
2023-01-26T02:56:50.058Z,21.70
2023-01-26T03:02:54.171Z,21.75
2023-01-26T03:08:56.292Z,21.00
2023-01-26T03:15:16.902Z,22.98
2023-01-26T03:21:37.771Z,20.35
2023-01-26T03:27:44.325Z,21.17
2023-01-26T03:33:48.024Z,23.40
2023-01-26T03:40:10.184Z,22.77
2023-01-26T03:46:31.373Z,21.13
2023-01-26T03:52:51.836Z,22.05
2023-01-26T03:58:56.441Z,20.02
2023-01-26T04:05:18.884Z,22.03
2023-01-26T04:11:24.142Z,22.25
2023-01-26T04:17:44.656Z,22.65
2023-01-26T04:23:48.136Z,22.60
2023-01-26T04:29:50.206Z,21.60
2023-01-26T04:35:52.217Z,25.13
2023-01-26T04:41:55.612Z,24.58
2023-01-26T04:47:57.519Z,24.83
2023-01-26T04:54:00.971Z,24.92
2023-01-26T05:00:03.726Z,30.02
2023-01-26T05:06:05.867Z,30.35
2023-01-26T05:12:47.111Z,31.38
2023-01-26T05:19:21.102Z,29.45
2023-01-26T05:25:51.851Z,30.08
2023-01-26T05:31:54.718Z,30.63
2023-01-26T05:37:56.700Z,28.73
2023-01-26T05:43:59.580Z,26.90
2023-01-26T05:50:13.458Z,32.00
2023-01-26T05:56:16.996Z,30.00
2023-01-26T06:02:27.272Z,28.50
2023-01-26T06:08:29.268Z,26.38
2023-01-26T06:14:53.810Z,24.67
2023-01-26T06:20:59.593Z,25.25
2023-01-26T06:27:02.201Z,22.55
2023-01-26T06:33:04.214Z,23.10
2023-01-26T06:39:11.495Z,23.20
2023-01-26T06:45:13.519Z,21.67
2023-01-26T06:51:15.952Z,21.38
2023-01-26T06:57:18.665Z,21.80
2023-01-26T07:03:43.679Z,22.50
2023-01-26T07:09:45.431Z,25.10
2023-01-26T07:15:47.190Z,26.05
2023-01-26T07:21:49.175Z,25.50
2023-01-26T07:27:56.760Z,26.33
2023-01-26T07:33:58.735Z,27.13
2023-01-26T07:40:00.549Z,24.67
2023-01-26T07:46:02.781Z,24.80
2023-01-26T07:52:05.659Z,23.05
2023-01-26T07:58:07.423Z,23.95
2023-01-26T08:04:09.272Z,26.73
2023-01-26T08:10:12.632Z,26.08
2023-01-26T08:16:15.349Z,23.95
2023-01-26T08:22:17.179Z,22.13
2023-01-26T08:28:21.149Z,20.30
2023-01-26T08:34:23.163Z,18.42
2023-01-26T08:40:25.225Z,18.90
2023-01-26T08:46:27.284Z,20.08
2023-01-26T08:52:29.061Z,19.10
2023-01-26T08:58:31.478Z,17.70
2023-01-26T12:17:55.087Z,28.90
2023-01-26T12:24:04.415Z,29.60
2023-01-26T12:30:26.206Z,30.35
2023-01-26T12:36:50.042Z,29.35
2023-01-26T12:43:25.883Z,30.15
2023-01-26T12:49:47.292Z,30.27
2023-01-26T12:56:05.111Z,36.55
2023-01-26T13:02:27.128Z,29.80
2023-01-26T13:08:39.098Z,32.25
2023-01-26T13:14:43.907Z,34.17
2023-01-26T13:20:50.159Z,32.42
2023-01-26T13:26:58.632Z,34.45
2023-01-26T13:33:25.384Z,31.67
2023-01-26T13:39:38.253Z,31.60
2023-01-26T13:45:44.151Z,34.90
2023-01-26T13:51:46.006Z,33.97
2023-01-26T13:57:49.552Z,31.77
2023-01-26T14:04:03.085Z,32.67
2023-01-26T14:10:06.285Z,32.33
2023-01-26T14:16:19.942Z,35.05
2023-01-26T14:22:22.591Z,32.53
2023-01-26T14:28:31.131Z,34.45
2023-01-26T14:34:32.907Z,32.63
2023-01-26T14:40:34.817Z,34.90
2023-01-26T14:46:56.694Z,36.80
2023-01-26T14:52:59.936Z,37.85
2023-01-26T14:59:02.658Z,36.85
2023-01-26T15:05:17.240Z,37.22
2023-01-26T15:11:58.904Z,35.05
2023-01-26T15:18:05.031Z,31.40
2023-01-26T15:24:13.288Z,33.50
2023-01-26T15:30:28.479Z,30.30
2023-01-26T15:36:35.210Z,31.00
2023-01-26T15:42:37.138Z,30.08
2023-01-26T15:48:39.715Z,29.00
2023-01-26T15:54:41.504Z,29.08
2023-01-26T16:00:43.248Z,37.70
2023-01-26T16:06:45.041Z,27.40
2023-01-26T16:12:48.548Z,30.70
2023-01-26T16:18:50.260Z,25.95
2023-01-26T16:24:52.013Z,22.60
2023-01-26T16:30:53.805Z,21.05
2023-01-26T16:36:56.431Z,21.17
2023-01-26T16:42:58.205Z,20.08
2023-01-26T16:49:00.012Z,25.10
2023-01-26T16:55:01.792Z,42.67
2023-01-26T17:01:04.189Z,21.77
2023-01-26T17:07:05.939Z,38.20
2023-01-26T17:13:07.859Z,21.55
2023-01-26T17:19:09.798Z,20.48
2023-01-26T17:25:14.529Z,18.55
2023-01-26T17:31:20.008Z,18.33
2023-01-26T17:37:23.935Z,34.03
2023-01-26T17:43:25.997Z,18.48
2023-01-26T17:49:28.650Z,21.65
2023-01-26T17:55:30.376Z,19.48
2023-01-26T18:01:32.357Z,18.95
2023-01-26T18:07:34.335Z,17.17
2023-01-26T18:13:36.203Z,23.88
2023-01-26T18:19:37.923Z,25.30
2023-01-26T18:25:40.282Z,17.50
2023-01-26T18:31:42.171Z,15.07
2023-01-26T18:37:43.974Z,15.98
2023-01-26T18:43:48.284Z,15.40
2023-01-26T18:49:50.089Z,14.25
2023-01-26T18:55:57.530Z,14.30
2023-01-26T19:08:10.224Z,13.93
2023-01-26T19:14:12.048Z,13.13
2023-01-26T19:20:13.981Z,13.00
2023-01-26T19:26:19.390Z,13.13
2023-01-26T19:32:21.113Z,12.10
2023-01-26T19:38:23.406Z,12.57
2023-01-26T19:44:25.358Z,12.68
2023-01-26T19:50:27.355Z,11.80
2023-01-26T19:56:31.661Z,12.65
2023-01-26T20:02:34.172Z,11.38
2023-01-26T20:08:36.235Z,11.85
2023-01-26T20:14:38.215Z,10.52
2023-01-26T20:20:40.226Z,10.35
2023-01-26T20:26:44.364Z,19.23
2023-01-26T20:32:46.297Z,24.25
2023-01-26T20:38:49.667Z,9.55
2023-01-26T20:44:51.556Z,8.27
2023-01-26T20:50:53.508Z,7.47
2023-01-26T20:56:55.426Z,8.10
2023-01-26T21:02:57.223Z,7.07
2023-01-26T21:09:00.884Z,7.60
2023-01-26T21:15:03.915Z,6.65
2023-01-26T21:21:07.878Z,7.65
2023-01-26T21:27:09.761Z,7.35
2023-01-26T21:33:11.740Z,7.22
2023-01-26T21:39:15.018Z,6.47
2023-01-26T21:45:35.636Z,6.20
2023-01-26T21:51:55.990Z,6.45
2023-01-26T21:58:16.242Z,6.50
2023-01-26T22:04:29.788Z,5.57
2023-01-26T22:10:31.722Z,5.50
2023-01-26T22:16:33.726Z,6.00
2023-01-26T22:22:35.657Z,5.43
2023-01-26T22:28:37.658Z,5.70
2023-01-26T22:34:39.708Z,5.90
2023-01-26T22:40:41.482Z,5.93
2023-01-26T22:46:43.229Z,6.10
2023-01-26T22:52:45.036Z,5.50
2023-01-26T22:58:58.536Z,6.03
2023-01-26T23:05:02.561Z,5.40
2023-01-26T23:11:14.790Z,5.03
2023-01-26T23:17:16.584Z,4.70
2023-01-26T23:23:19.230Z,4.95
2023-01-26T23:29:20.996Z,5.03
2023-01-26T23:35:25.492Z,4.45
2023-01-26T23:41:28.215Z,4.50
2023-01-26T23:47:30.543Z,4.00
2023-01-26T23:53:32.606Z,4.10
2023-01-26T23:59:34.348Z,3.47
